Map

Track Data

SID SEASON NUMBER BASIN SUBBASIN NAME ISO_TIME NATURE LAT LON WMO_WIND WMO_PRES WMO_AGENCY TRACK_TYPE DIST2LAND LANDFALL IFLAG USA_AGENCY USA_ATCF_ID USA_LAT USA_LON USA_RECORD USA_STATUS USA_WIND USA_PRES USA_SSHS USA_R34_NE USA_R34_SE USA_R34_SW USA_R34_NW USA_R50_NE USA_R50_SE USA_R50_SW USA_R50_NW USA_R64_NE USA_R64_SE USA_R64_SW USA_R64_NW USA_POCI USA_ROCI USA_RMW USA_EYE TOKYO_LAT TOKYO_LON TOKYO_GRADE TOKYO_WIND TOKYO_PRES TOKYO_R50_DIR TOKYO_R50_LONG TOKYO_R50_SHORT TOKYO_R30_DIR TOKYO_R30_LONG TOKYO_R30_SHORT TOKYO_LAND CMA_LAT CMA_LON CMA_CAT CMA_WIND CMA_PRES HKO_LAT HKO_LON HKO_CAT HKO_WIND HKO_PRES NEWDELHI_LAT NEWDELHI_LON NEWDELHI_GRADE NEWDELHI_WIND NEWDELHI_PRES NEWDELHI_CI NEWDELHI_DP NEWDELHI_POCI REUNION_LAT REUNION_LON REUNION_TYPE REUNION_WIND REUNION_PRES REUNION_TNUM REUNION_CI REUNION_RMW REUNION_R34_NE REUNION_R34_SE REUNION_R34_SW REUNION_R34_NW REUNION_R50_NE REUNION_R50_SE REUNION_R50_SW REUNION_R50_NW REUNION_R64_NE REUNION_R64_SE REUNION_R64_SW REUNION_R64_NW BOM_LAT BOM_LON BOM_TYPE BOM_WIND BOM_PRES BOM_TNUM BOM_CI BOM_RMW BOM_R34_NE BOM_R34_SE BOM_R34_SW BOM_R34_NW BOM_R50_NE BOM_R50_SE BOM_R50_SW BOM_R50_NW BOM_R64_NE BOM_R64_SE BOM_R64_SW BOM_R64_NW BOM_ROCI BOM_POCI BOM_EYE BOM_POS_METHOD BOM_PRES_METHOD NADI_LAT NADI_LON NADI_CAT NADI_WIND NADI_PRES WELLINGTON_LAT WELLINGTON_LON WELLINGTON_WIND WELLINGTON_PRES DS824_LAT DS824_LON DS824_STAGE DS824_WIND DS824_PRES TD9636_LAT TD9636_LON TD9636_STAGE TD9636_WIND TD9636_PRES TD9635_LAT TD9635_LON TD9635_WIND TD9635_PRES TD9635_ROCI NEUMANN_LAT NEUMANN_LON NEUMANN_CLASS NEUMANN_WIND NEUMANN_PRES MLC_LAT MLC_LON MLC_CLASS MLC_WIND MLC_PRES USA_GUST BOM_GUST BOM_GUST_PER REUNION_GUST REUNION_GUST_PER USA_SEAHGT USA_SEARAD_NE USA_SEARAD_SE USA_SEARAD_SW USA_SEARAD_NW STORM_SPEED STORM_DIR
1863111S13441 1863 10 SI MM NOT_NAMED 1863-04-20 18:00:00 NR -13.1000 80.5000 main 2128 2128 __________O___ -1 -13.1000 80.5000 7 8 250
1863111S13441 1863 10 SI MM NOT_NAMED 1863-04-20 21:00:00 NR -13.2302 80.1285 main 2140 2140 __________P___ -1 -13.2302 80.1285 7 8 250
1863111S13441 1863 10 SI MM NOT_NAMED 1863-04-21 00:00:00 NR -13.3581 79.7654 main 2164 2164 __________P___ -1 -13.3581 79.7654 7 7 250
1863111S13441 1863 10 SI MM NOT_NAMED 1863-04-21 03:00:00 NR -13.4819 79.4196 main 2177 2177 __________P___ -1 -13.4819 79.4196 7 7 249
1863111S13441 1863 10 SI MM NOT_NAMED 1863-04-21 06:00:00 NR -13.6000 79.1000 main 2190 2190 __________O___ -1 -13.6000 79.1000 7 6 249
1863111S13441 1863 10 SI MM NOT_NAMED 1863-04-21 09:00:00 NR -13.7110 78.8114 main 2204 2204 __________P___ -1 -13.7110 78.8114 7 6 248
1863111S13441 1863 10 SI MM NOT_NAMED 1863-04-21 12:00:00 NR -13.8146 78.5423 main 2219 2219 __________P___ -1 -13.8146 78.5423 7 6 249
1863111S13441 1863 10 SI MM NOT_NAMED 1863-04-21 15:00:00 NR -13.9110 78.2771 main 2232 2232 __________P___ -1 -13.9110 78.2771 7 6 251
1863111S13441 1863 10 SI MM NOT_NAMED 1863-04-21 18:00:00 NR -14.0000 78.0000 main 2247 2223 __________O___ -1 -14.0000 78.0000 7 6 254
1863111S13441 1863 10 SI MM NOT_NAMED 1863-04-21 21:00:00 NR -14.0782 77.6771 main 2223 2192 __________P___ -1 -14.0782 77.6771 7 7 257
1863111S13441 1863 10 SI MM NOT_NAMED 1863-04-22 00:00:00 NR -14.1501 77.3424 main 2178 2148 __________P___ -1 -14.1501 77.3424 7 7 257
1863111S13441 1863 10 SI MM NOT_NAMED 1863-04-22 03:00:00 NR -14.2219 77.0115 main 2148 2114 __________P___ -1 -14.2219 77.0115 7 6 256
1863111S13441 1863 10 SI MM NOT_NAMED 1863-04-22 06:00:00 NR -14.3000 76.7000 main 2114 2090 __________O___ -1 -14.3000 76.7000 7 6 253
1863111S13441 1863 10 SI MM NOT_NAMED 1863-04-22 09:00:00 NR -14.3885 76.4364 main 2080 2056 __________P___ -1 -14.3885 76.4364 7 5 249
1863111S13441 1863 10 SI MM NOT_NAMED 1863-04-22 12:00:00 NR -14.4846 76.1923 main 2056 2031 __________P___ -1 -14.4846 76.1923 7 5 247
1863111S13441 1863 10 SI MM NOT_NAMED 1863-04-22 15:00:00 NR -14.5885 75.9520 main 2031 1997 __________P___ -1 -14.5885 75.9520 7 5 246
1863111S13441 1863 10 SI MM NOT_NAMED 1863-04-22 18:00:00 NR -14.7000 75.7000 main 1997 1963 __________O___ -1 -14.7000 75.7000 7 6 246
1863111S13441 1863 10 SI MM NOT_NAMED 1863-04-22 21:00:00 NR -14.8260 75.4023 main 1963 1925 __________P___ -1 -14.8260 75.4023 7 6 246
1863111S13441 1863 10 SI MM NOT_NAMED 1863-04-23 00:00:00 NR -14.9576 75.0927 main 1925 1891 __________P___ -1 -14.9576 75.0927 7 7 246
1863111S13441 1863 10 SI MM NOT_NAMED 1863-04-23 03:00:00 NR -15.0854 74.7867 main 1891 1857 __________P___ -1 -15.0854 74.7867 7 6 247
1863111S13441 1863 10 SI MM NOT_NAMED 1863-04-23 06:00:00 NR -15.2000 74.5000 main 1857 1833 __________O___ -1 -15.2000 74.5000 7 6 249
1863111S13441 1863 10 SI MM NOT_NAMED 1863-04-23 09:00:00 NR -15.2851 74.2532 main 1833 1799 __________P___ -1 -15.2851 74.2532 7 5 251
1863111S13441 1863 10 SI MM NOT_NAMED 1863-04-23 12:00:00 NR -15.3573 74.0272 main 1799 1779 __________P___ -1 -15.3573 74.0272 7 4 252
1863111S13441 1863 10 SI MM NOT_NAMED 1863-04-23 15:00:00 NR -15.4258 73.8126 main 1779 1755 __________P___ -1 -15.4258 73.8126 7 4 251
1863111S13441 1863 10 SI MM NOT_NAMED 1863-04-23 18:00:00 NR -15.5000 73.6000 main 1755 1731 __________O___ -1 -15.5000 73.6000 7 4 249
1863111S13441 1863 10 SI MM NOT_NAMED 1863-04-23 21:00:00 NR -15.5846 73.3830 main 1731 1707 __________P___ -1 -15.5846 73.3830 7 5 247
1863111S13441 1863 10 SI MM NOT_NAMED 1863-04-24 00:00:00 NR -15.6773 73.1648 main 1707 1683 __________P___ -1 -15.6773 73.1648 7 5 245
1863111S13441 1863 10 SI MM NOT_NAMED 1863-04-24 03:00:00 NR -15.7814 72.9392 main 1673 1649 __________P___ -1 -15.7814 72.9392 7 5 244
1863111S13441 1863 10 SI MM NOT_NAMED 1863-04-24 06:00:00 NR -15.9000 72.7000 main 1649 1625 __________O___ -1 -15.9000 72.7000 7 5 242
1863111S13441 1863 10 SI MM NOT_NAMED 1863-04-24 09:00:00 NR -16.0356 72.4353 main 1615 1587 __________P___ -1 -16.0356 72.4353 7 6 241
1863111S13441 1863 10 SI MM NOT_NAMED 1863-04-24 12:00:00 NR -16.1850 72.1575 main 1587 1553 __________P___ -1 -16.1850 72.1575 7 6 240
1863111S13441 1863 10 SI MM NOT_NAMED 1863-04-24 15:00:00 NR -16.3419 71.8759 main 1553 1516 __________P___ -1 -16.3419 71.8759 7 6 239
1863111S13441 1863 10 SI MM NOT_NAMED 1863-04-24 18:00:00 NR -16.5000 71.6000 main 1516 1492 __________O___ -1 -16.5000 71.6000 7 6 239
1863111S13441 1863 10 SI MM NOT_NAMED 1863-04-24 21:00:00 NR -16.6544 71.3370 main 1478 1455 __________P___ -1 -16.6544 71.3370 7 6 238
1863111S13441 1863 10 SI MM NOT_NAMED 1863-04-25 00:00:00 NR -16.8051 71.0852 main 1455 1431 __________P___ -1 -16.8051 71.0852 7 6 238
1863111S13441 1863 10 SI MM NOT_NAMED 1863-04-25 03:00:00 NR -16.9533 70.8408 main 1418 1394 __________P___ -1 -16.9533 70.8408 7 6 238
1863111S13441 1863 10 SI MM NOT_NAMED 1863-04-25 06:00:00 NR -17.1000 70.6000 main 1394 __________O___ -1 -17.1000 70.6000 7 5 238

About IBTrACS Database

This database is a web-friendly format of International Best Track Archive for Climate Stewardship (IBTrACS), a global best track data archive curated by NOAA dating back to 1842.

Updated: 2021-10-08